Overview Statistics Trail Chart Weather Telemetry Raw packets
 

This is the latest recevied weather packets stored in our database for station/object N7YET. If no packets are shown the sender has not sent any weather packets the latest 10 day(s).

<< 30 31 32 33 34 35 36 >>
Time Temp. Humidity Pressure Rain* Wind** Luminosity Snow
1788140640 18.33° C 21% 1012.9 hPa 0 mm - - -
1788140040 18.89° C 19% 1012.9 hPa 0 mm - - -
1788139410 19.44° C 18% 1012.9 hPa 0 mm - - -
1788138810 20° C 18% 1012.9 hPa 0 mm - - -
1788138180 20° C 18% 1012.9 hPa 0 mm - - -
1788137550 20° C 17% 1012.9 hPa 0 mm - - -
1788136950 20° C 18% 1012.9 hPa 0 mm - - -
1788136350 20.56° C 16% 1012.9 hPa 0 mm - - -
1788135720 21.67° C 17% 1011.9 hPa 0 mm - - -
1788135090 22.22° C 16% 1011.9 hPa 0 mm - - -
1788134490 22.22° C 16% 1011.9 hPa 0 mm - - -
1788133861 22.22° C 15% 1011.9 hPa 0 mm - - -
1788133230 22.22° C 16% 1011.9 hPa 0 mm - - -
1788132600 22.22° C 16% 1011.9 hPa 0 mm - - -
1788132000 22.22° C 18% 1012.9 hPa 0 mm - - -
1788131370 21.67° C 17% 1012.9 hPa 0 mm - - -
1788130739 21.67° C 15% 1011.9 hPa 0 mm - - -
1787855454 23.89° C 38% 1016.9 hPa 0 mm - - -
1787854854 24.44° C 37% 1016.9 hPa 0 mm - - -
1787854254 25.56° C 35% 1016.9 hPa 0 mm - - -
1787853654 25.56° C 36% 1016.9 hPa 0 mm - - -
1787853054 25.56° C 36% 1016.9 hPa 0 mm - - -
1787852454 25° C 36% 1016.9 hPa 0 mm - - -
1787851854 25° C 39% 1016.9 hPa 0 mm - - -
1787851224 23.89° C 42% 1016.9 hPa 0 mm - - -

* Rain latest hour (hover to see other rain measurements)
** Current wind speed in m/s (hover to see current wind gust speed)